• Join FlightAware (Why Join?)
  • Login
  • US Flag 
05:26PM EDT


 

Airport Tracker/Info


-or-


 

Live Flight TrackerFlight Track Log ✈ SLI2164 ✈ 27-Apr-2014 ✈ MMLT / LTO - KLAX

Flight Track Log - Related Links

Times and Time Zones

All times are in EDT time to prevent confusion due to time zone crossing. See the SLI2164 flight status page for this flight to view local times or setup timezone preferences in your user account.

Time Position Orientation Groundspeed Altitude Reporting Facility
EDT Latitude Longitude Course Direction KTS MPH feet Rate Location/Type
02:09PM 26.3955 -111.7420 319° Northwest  Level FlightAware Approximate
02:10PM 26.4632 -111.8079 319° Northwest  Level FlightAware Approximate
02:11PM 26.5307 -111.8738 319° Northwest  Level FlightAware Approximate
02:12PM 26.5983 -111.9398 319° Northwest  Level FlightAware Approximate
02:13PM 26.6658 -112.0060 319° Northwest  Level FlightAware Approximate
02:14PM 26.7333 -112.0721 319° Northwest  Level FlightAware Approximate
02:15PM 26.8008 -112.1384 319° Northwest  Level FlightAware Approximate
02:16PM 26.8682 -112.2048 319° Northwest  Level FlightAware Approximate
02:17PM 26.9356 -112.2712 319° Northwest  Level FlightAware Approximate
02:18PM 27.0030 -112.3377 319° Northwest  Level FlightAware Approximate
02:19PM 27.0704 -112.4043 319° Northwest  Level FlightAware Approximate
02:20PM 27.1377 -112.4709 319° Northwest  Level FlightAware Approximate
02:21PM 27.2049 -112.5377 319° Northwest  Level FlightAware Approximate
02:22PM 27.2722 -112.6045 319° Northwest  Level FlightAware Approximate
02:23PM 27.3394 -112.6714 319° Northwest  Level FlightAware Approximate
02:24PM 27.4066 -112.7384 318° Northwest  Level FlightAware Approximate
02:25PM 27.4737 -112.8054 318° Northwest  Level FlightAware Approximate
02:26PM 27.5409 -112.8726 318° Northwest  Level FlightAware Approximate
02:27PM 27.6080 -112.9398 318° Northwest  Level FlightAware Approximate
02:28PM 27.6750 -113.0071 318° Northwest  Level FlightAware Approximate
02:29PM 27.7420 -113.0745 318° Northwest  Level FlightAware Approximate
02:30PM 27.8090 -113.1420 318° Northwest  Level FlightAware Approximate
02:31PM 27.8825 -113.2003 319° Northwest  Level Estimated
02:32PM 27.9488 -113.2687 318° Northwest  Level FlightAware Approximate
02:33PM 28.0151 -113.3372 318° Northwest  Level FlightAware Approximate
02:34PM 28.0814 -113.4057 318° Northwest  Level FlightAware Approximate
02:35PM 28.1476 -113.4743 318° Northwest  Level FlightAware Approximate
02:36PM 28.2138 -113.5430 318° Northwest  Level FlightAware Approximate
02:37PM 28.2800 -113.6118 318° Northwest  Level FlightAware Approximate
02:38PM 28.3537 -113.6699 317° Northwest  Level Estimated
02:39PM 28.4175 -113.7417 315° West  Level FlightAware Approximate
02:40PM 28.4812 -113.8135 315° West  Level FlightAware Approximate
02:41PM 28.5449 -113.8855 315° West  Level FlightAware Approximate
02:42PM 28.6189 -113.9433 317° Northwest  Level Estimated
02:43PM 28.6826 -114.0153 315° West  Level FlightAware Approximate
02:44PM 28.7463 -114.0874 315° West  Level FlightAware Approximate
02:45PM 28.8099 -114.1596 315° West  Level FlightAware Approximate
02:46PM 28.8735 -114.2319 315° West  Level FlightAware Approximate
02:47PM 28.9478 -114.2893 318° Northwest  Level Estimated
02:48PM 29.0129 -114.3600 316° Northwest  Level FlightAware Approximate
02:49PM 29.0779 -114.4307 316° Northwest  Level FlightAware Approximate
02:50PM 29.1428 -114.5016 316° Northwest  Level FlightAware Approximate
02:51PM 29.2078 -114.5725 316° Northwest  Level FlightAware Approximate
02:52PM 29.2727 -114.6435 316° Northwest  Level FlightAware Approximate
02:53PM 29.3375 -114.7147 316° Northwest  Level FlightAware Approximate
02:54PM 29.4124 -114.7713 318° Northwest  Level Estimated
02:55PM 29.4781 -114.8415 317° Northwest  Level FlightAware Approximate
02:56PM 29.5438 -114.9118 317° Northwest  Level FlightAware Approximate
02:57PM 29.6094 -114.9821 317° Northwest  Level FlightAware Approximate
02:58PM 29.6751 -115.0526 317° Northwest  Level FlightAware Approximate
02:59PM 29.7145 -115.0950 317° Northwest  Level FlightAware Approximate
03:00PM 29.7540 -115.1375 317° Northwest  Level FlightAware Approximate
03:01PM 29.7934 -115.1800 317° Northwest  Level FlightAware Approximate
03:02PM 29.8329 -115.2226 317° Northwest  Level FlightAware Approximate
03:03PM 29.8723 -115.2652 317° Northwest  Level FlightAware Approximate
03:04PM 29.9117 -115.3078 317° Northwest  Level FlightAware Approximate
03:05PM 29.9511 -115.3504 317° Northwest  Level FlightAware Approximate
03:06PM 29.9904 -115.3931 317° Northwest  Level FlightAware Approximate
03:07PM 30.0298 -115.4359 317° Northwest  Level FlightAware Approximate
03:08PM 30.0692 -115.4786 317° Northwest  Level FlightAware Approximate
03:09PM 30.1085 -115.5214 317° Northwest  Level FlightAware Approximate
03:10PM 30.1478 -115.5642 317° Northwest  Level FlightAware Approximate
03:11PM 30.1871 -115.6071 317° Northwest  Level FlightAware Approximate
03:12PM 30.2264 -115.6500 317° Northwest  Level FlightAware Approximate
03:13PM 30.2657 -115.6929 317° Northwest  Level FlightAware Approximate
03:14PM 30.3050 -115.7359 317° Northwest  Level FlightAware Approximate
03:14PM 32.2819 -115.0297 338° Northwest 364 419 36,000  Level Los Angeles Center
03:15PM 30.3442 -115.7789 317° Northwest  Level FlightAware Approximate
03:15PM 32.3592 -115.1006 322° Northwest 352 405 36,000  Level Los Angeles Center
03:16PM 30.3834 -115.8219 317° Northwest  Level FlightAware Approximate
03:16PM 32.4108 -115.1992 302° West 355 409 36,000  Level Los Angeles Center
03:17PM 30.4227 -115.8650 317° Northwest  Level FlightAware Approximate
03:17PM 32.4664 -115.3053 302° West 354 407 36,000  Level Los Angeles Center
03:18PM 30.4619 -115.9081 317° Northwest  Level FlightAware Approximate
03:18PM 32.5183 -115.4042 302° West 354 407 36,000  Level Los Angeles Center
03:19PM 30.5084 -115.9400 338° Northwest  Level Estimated
03:19PM 32.5708 -115.5028 302° West 355 409 36,000  Level Los Angeles Center
03:20PM 32.6236 -115.6008 303° West 355 409 36,000  Level Los Angeles Center
03:21PM 32.6864 -115.7189 302° West 354 407 36,000  Level Los Angeles Center
03:22PM 32.7383 -115.8169 302° West 353 406 36,000  Level Los Angeles Center
03:23PM 32.7897 -115.9142 302° West 350 403 36,000  Level Los Angeles Center
03:24PM 32.8422 -116.0125 302° West 352 405 36,000 -360 Level Los Angeles Center
03:25PM 32.8931 -116.1100 302° West 353 406 35,300 -1,560 Descending Los Angeles Center
03:26PM 32.9486 -116.2161 302° West 361 415 32,800 -2,820 Descending Los Angeles Center
03:27PM 33.0142 -116.3397 302° West 367 422 29,500 -3,000 Descending Los Angeles Center
03:28PM 33.0628 -116.4353 301° West 368 423 26,700 -2,640 Descending Los Angeles Center
03:29PM 33.1178 -116.5417 302° West 377 434 24,100 -1,320 Descending Los Angeles Center
03:30PM 33.1528 -116.6792 287° West 369 425 24,000 -480 Descending Los Angeles Center
03:31PM 33.1672 -116.7989 278° West 367 422 23,100 -1,740 Descending Los Angeles Center
03:32PM 33.1817 -116.9175 278° West 367 422 20,400 -2,760 Descending Los Angeles Center
03:33PM 33.1950 -117.0378 278° West 367 422 17,400 -3,000 Descending Los Angeles Center
03:34PM 33.2108 -117.1681 278° West 358 412 14,200 -2,580 Descending Los Angeles Center
03:35PM 33.2247 -117.2792 279° West 344 396 12,100 -1,200 Descending Los Angeles Center
03:37PM 33.2367 -117.3872 278° West 334 384 11,700 -1,020 Descending Los Angeles Center
03:38PM 33.2500 -117.5000 278° West 284 327 10,100 -900 Descending Southern California TRACON
03:39PM 33.2500 -117.5833 270° West 285 328 10,000 -60 Descending Southern California TRACON
03:40PM 33.3125 -117.6633 313° West 280 322 10,000 -420 Level Los Angeles Center
03:41PM 33.3706 -117.7247 319° Northwest 281 323 9,200 -1,020 Descending Los Angeles Center
03:42PM 33.4167 -117.7833 313° West 247 284 8,100 -660 Descending Southern California TRACON
03:43PM 33.4667 -117.8333 320° Northwest 253 291 8,000 -300 Descending Southern California TRACON
03:44PM 33.5167 -117.8833 320° Northwest 253 291 7,600 -480 Descending Southern California TRACON
03:45PM 33.5833 -117.9500 320° Northwest 253 291 7,000 -300 Descending Southern California TRACON
03:46PM 33.6333 -118.0000 320° Northwest 259 298 7,000  Level Southern California TRACON
03:47PM 33.7000 -118.0167 348° North 254 292 7,000  Level Southern California TRACON
03:48PM 33.7667 -118.0500 337° Northwest 264 304 7,000 -180 Level Southern California TRACON
03:49PM 33.8333 -118.0500 360° North 253 291 6,700 -1,020 Descending Southern California TRACON
03:50PM 33.9000 -118.0667 348° North 228 262 5,000 -1,620 Descending Southern California TRACON
03:51PM 33.9500 -118.1000 331° Northwest 228 262 3,500 -1,260 Descending Southern California TRACON
03:52PM 33.9500 -118.1833 270° West 231 266 2,500 -840 Descending Southern California TRACON
03:52PM 33.9556 -118.2072 286° West 227 261 2,300 -480 Descending Los Angeles Center
03:53PM 33.9483 -118.2775 263° West 219 252 1,800 -780 Descending Los Angeles Center
03:54PM 33.9417 -118.3450 263° West 180 207 800 -780 Descending Los Angeles Center
03:55PM 33.9381 -118.3906 265° West 150 173 200 -600 Descending Los Angeles Center